createdAt,value
2022-12-23T00:01:10.991Z,99834.47
2022-12-23T00:03:39.464Z,99834.94
2022-12-23T00:06:23.262Z,99833.06
2022-12-23T00:08:58.022Z,99837.84
2022-12-23T00:11:26.786Z,99834.78
2022-12-23T00:14:21.922Z,99834.19
2022-12-23T00:16:52.059Z,99839.63
2022-12-23T00:19:20.855Z,99837.59
2022-12-23T00:21:50.718Z,99842.63
2022-12-23T00:24:25.384Z,99843.88
2022-12-23T00:26:53.831Z,99837.31
2022-12-23T00:29:21.617Z,99844.19
2022-12-23T00:31:49.247Z,99843.56
2022-12-23T00:34:17.334Z,99842.34
2022-12-23T00:36:44.937Z,99843.41
2022-12-23T00:39:33.005Z,99841.16
2022-12-23T00:42:20.559Z,99834.94
2022-12-23T00:44:48.167Z,99821.50
2022-12-23T00:47:29.649Z,99823.97
2022-12-23T00:49:57.261Z,99817.97
2022-12-23T00:52:27.192Z,99817.16
2022-12-23T00:54:57.185Z,99815.94
2022-12-23T00:57:29.391Z,99817.66
2022-12-23T00:59:57.007Z,99821.06
2022-12-23T01:02:42.211Z,99830.91
2022-12-23T01:05:32.017Z,99832.00
2022-12-23T01:07:59.644Z,99825.59
2022-12-23T01:10:27.323Z,99816.78
2022-12-23T01:12:54.959Z,99811.66
2022-12-23T01:15:22.592Z,99807.56
2022-12-23T01:17:52.274Z,99806.94
2022-12-23T01:20:19.910Z,99811.94
2022-12-23T01:22:49.743Z,99804.94
2022-12-23T01:25:17.867Z,99799.56
2022-12-23T01:27:50.386Z,99805.97
2022-12-23T01:30:20.557Z,99802.66
2022-12-23T01:32:49.087Z,99802.66
2022-12-23T01:35:17.281Z,99795.25
2022-12-23T01:37:44.999Z,99791.56
2022-12-23T01:40:12.778Z,99792.59
2022-12-23T01:42:45.320Z,99797.59
2022-12-23T01:45:28.194Z,99791.38
2022-12-23T01:48:06.605Z,99787.66
2022-12-23T01:50:42.264Z,99786.63
2022-12-23T01:53:20.837Z,99786.63
2022-12-23T01:56:15.285Z,99788.88
2022-12-23T01:58:52.092Z,99780.81
2022-12-23T02:01:37.643Z,99777.31
2022-12-23T02:04:09.222Z,99775.66
2022-12-23T02:07:05.343Z,99781.03
2022-12-23T02:09:41.038Z,99763.69
2022-12-23T02:12:40.969Z,99771.53
2022-12-23T02:15:32.149Z,99768.47
2022-12-23T02:18:15.300Z,99761.66
2022-12-23T02:21:04.780Z,99758.63
2022-12-23T02:24:10.121Z,99758.88
2022-12-23T02:26:43.807Z,99774.66
2022-12-23T02:29:32.545Z,99769.69
2022-12-23T02:32:09.780Z,99768.47
2022-12-23T02:34:44.191Z,99772.63
2022-12-23T02:37:27.436Z,99769.31
2022-12-23T02:40:23.705Z,99759.03
2022-12-23T02:43:06.158Z,99762.75
2022-12-23T02:45:42.775Z,99768.34
2022-12-23T02:48:17.492Z,99758.66
2022-12-23T02:50:47.852Z,99762.19
2022-12-23T02:53:26.888Z,99770.66
2022-12-23T02:55:59.962Z,99771.50
2022-12-23T02:58:32.948Z,99765.53
2022-12-23T03:01:03.389Z,99768.22
2022-12-23T03:03:32.416Z,99772.75
2022-12-23T03:06:03.457Z,99765.97
2022-12-23T03:08:39.905Z,99769.47
2022-12-23T03:11:07.448Z,99777.09
2022-12-23T03:13:47.252Z,99780.81
2022-12-23T03:16:25.586Z,99766.16
2022-12-23T03:19:14.738Z,99763.91
2022-12-23T03:21:48.193Z,99769.69
2022-12-23T03:24:19.936Z,99773.41
2022-12-23T03:27:10.557Z,99761.62
2022-12-23T03:29:42.889Z,99764.50
2022-12-23T03:32:14.052Z,99758.09
2022-12-23T03:34:49.458Z,99766.16
2022-12-23T03:37:22.603Z,99754.59
2022-12-23T03:40:05.696Z,99757.66
2022-12-23T03:42:38.578Z,99757.50
2022-12-23T03:45:38.112Z,99758.28
2022-12-23T03:48:06.234Z,99754.56
2022-12-23T03:50:35.782Z,99763.66
2022-12-23T03:53:11.890Z,99754.78
2022-12-23T03:55:49.615Z,99743.81
2022-12-23T03:58:25.382Z,99752.09
2022-12-23T04:01:25.169Z,99749.19
2022-12-23T04:04:01.730Z,99747.53
2022-12-23T04:06:37.405Z,99750.00
2022-12-23T04:09:07.795Z,99755.38
2022-12-23T04:11:37.562Z,99745.91
2022-12-23T04:14:10.519Z,99741.78
2022-12-23T04:16:38.329Z,99741.81
2022-12-23T04:19:08.282Z,99738.09
2022-12-23T04:21:35.909Z,99724.91
2022-12-23T04:24:05.786Z,99725.94
2022-12-23T04:26:33.485Z,99730.66
2022-12-23T04:29:01.035Z,99735.84
2022-12-23T04:31:28.686Z,99737.69
2022-12-23T04:33:58.679Z,99743.06
2022-12-23T04:36:26.297Z,99737.91
2022-12-23T04:38:53.926Z,99744.53
2022-12-23T04:41:21.680Z,99739.78
2022-12-23T04:43:53.027Z,99756.72
2022-12-23T04:46:21.133Z,99746.62
2022-12-23T04:48:48.821Z,99750.37
2022-12-23T04:51:16.473Z,99746.03
2022-12-23T04:53:44.059Z,99753.06
2022-12-23T04:56:11.764Z,99749.94
2022-12-23T04:58:41.818Z,99748.13
2022-12-23T05:01:12.139Z,99749.53
2022-12-23T05:03:43.154Z,99746.88
2022-12-23T05:06:13.384Z,99740.06
2022-12-23T05:08:43.649Z,99728.94
2022-12-23T05:11:11.259Z,99731.63
2022-12-23T05:13:38.943Z,99741.31
2022-12-23T05:16:07.513Z,99743.41
2022-12-23T05:18:35.109Z,99740.75
2022-12-23T05:21:02.733Z,99740.72
2022-12-23T05:23:30.389Z,99745.25
2022-12-23T05:25:58.038Z,99742.37
2022-12-23T05:28:27.908Z,99744.03
2022-12-23T05:31:03.473Z,99742.78
2022-12-23T05:33:31.502Z,99745.28
2022-12-23T05:35:59.294Z,99744.47
2022-12-23T05:38:27.154Z,99740.53
2022-12-23T05:40:57.113Z,99738.72
2022-12-23T05:43:25.366Z,99739.94
2022-12-23T05:45:53.429Z,99740.97
2022-12-23T05:48:23.491Z,99749.00
2022-12-23T05:50:52.404Z,99755.38
2022-12-23T05:53:20.851Z,99775.59
2022-12-23T05:55:48.895Z,99771.25
2022-12-23T05:58:18.471Z,99770.63
2022-12-23T06:00:46.230Z,99773.72
2022-12-23T06:03:14.715Z,99771.87
2022-12-23T06:05:43.816Z,99771.06
2022-12-23T06:08:12.844Z,99768.78
2022-12-23T06:10:40.855Z,99761.16
2022-12-23T06:13:08.926Z,99759.69
2022-12-23T06:15:36.613Z,99760.94
2022-12-23T06:18:04.448Z,99761.34
2022-12-23T06:20:32.108Z,99761.34
2022-12-23T06:22:59.762Z,99766.09
2022-12-23T06:25:27.367Z,99762.16
2022-12-23T06:27:55.103Z,99757.44
2022-12-23T06:30:22.846Z,99764.22
2022-12-23T06:32:50.983Z,99773.69
2022-12-23T06:35:18.948Z,99756.59
2022-12-23T06:37:46.558Z,99758.06
2022-12-23T06:40:15.019Z,99752.28
2022-12-23T06:42:42.758Z,99756.59
2022-12-23T06:45:11.366Z,99764.87
2022-12-23T06:47:41.045Z,99758.50
2022-12-23T06:50:10.222Z,99765.28
2022-12-23T06:52:38.091Z,99779.50
2022-12-23T06:55:06.404Z,99781.34
2022-12-23T06:57:34.312Z,99778.25
2022-12-23T07:00:02.183Z,99786.50
2022-12-23T07:02:30.147Z,99787.75
2022-12-23T07:04:57.848Z,99796.81
2022-12-23T07:07:27.940Z,99819.69
2022-12-23T07:09:55.551Z,99816.19
2022-12-23T07:12:23.176Z,99817.41
2022-12-23T07:14:50.875Z,99820.72
2022-12-23T07:17:18.851Z,99825.87
2022-12-23T07:19:46.504Z,99832.66
2022-12-23T07:22:14.126Z,99823.19
2022-12-23T07:24:41.726Z,99824.84
2022-12-23T07:27:10.090Z,99808.56
2022-12-23T07:29:39.345Z,99799.91
2022-12-23T07:32:08.448Z,99797.44
2022-12-23T07:34:36.450Z,99789.38
2022-12-23T07:37:04.092Z,99785.47
2022-12-23T07:39:31.713Z,99792.28
2022-12-23T07:42:25.040Z,99789.59
2022-12-23T07:44:46.895Z,99783.22
2022-12-23T07:47:15.512Z,99784.44
2022-12-23T07:49:43.136Z,99787.34
2022-12-23T07:52:14.794Z,99778.69
2022-12-23T07:54:42.415Z,99782.16
2022-12-23T07:57:10.063Z,99778.28
2022-12-23T07:59:37.648Z,99783.41
2022-12-23T08:02:05.833Z,99780.13
2022-12-23T08:04:40.981Z,99785.88
2022-12-23T08:07:14.283Z,99772.69
2022-12-23T08:09:44.006Z,99773.13
2022-12-23T08:12:12.089Z,99769.19
2022-12-23T08:14:40.002Z,99776.19
2022-12-23T08:17:07.686Z,99775.16
2022-12-23T08:19:35.484Z,99774.56
2022-12-23T08:22:05.613Z,99786.53
2022-12-23T08:24:33.409Z,99775.78
2022-12-23T08:27:00.994Z,99768.38
2022-12-23T08:29:36.044Z,99770.63
2022-12-23T08:32:07.016Z,99767.75
2022-12-23T08:34:35.017Z,99767.13
2022-12-23T08:37:05.949Z,99764.06
2022-12-23T08:39:36.382Z,99770.03
2022-12-23T08:42:04.874Z,99780.94
2022-12-23T08:44:32.711Z,99773.09
2022-12-23T08:47:00.537Z,99770.22
2022-12-23T08:49:28.166Z,99771.25
2022-12-23T08:51:55.831Z,99763.41
2022-12-23T08:54:23.843Z,99750.22
2022-12-23T08:56:51.472Z,99745.69
2022-12-23T08:59:20.106Z,99732.31
2022-12-23T09:01:48.812Z,99724.66
2022-12-23T09:04:17.057Z,99739.09
2022-12-23T09:06:45.540Z,99723.62
2022-12-23T09:09:15.689Z,99739.12
2022-12-23T09:11:43.422Z,99741.59
2022-12-23T09:14:12.377Z,99740.75
2022-12-23T09:16:40.785Z,99742.00
2022-12-23T09:19:09.027Z,99744.03
2022-12-23T09:21:36.877Z,99749.59
2022-12-23T09:24:04.645Z,99739.47
2022-12-23T09:26:33.095Z,99749.41
2022-12-23T09:29:01.397Z,99751.66
2022-12-23T09:31:36.098Z,99766.91
2022-12-23T09:34:05.151Z,99745.88
2022-12-23T09:36:35.329Z,99756.81
2022-12-23T09:39:04.921Z,99745.66
2022-12-23T09:41:42.797Z,99739.91
2022-12-23T09:44:25.619Z,99730.00
2022-12-23T09:46:57.791Z,99728.16
2022-12-23T09:49:25.559Z,99720.53
2022-12-23T09:52:00.214Z,99721.78
2022-12-23T09:54:30.405Z,99730.22
2022-12-23T09:57:01.166Z,99733.75
2022-12-23T09:59:44.323Z,99727.59
2022-12-23T10:02:33.550Z,99736.81
2022-12-23T10:05:35.341Z,99723.03
2022-12-23T10:08:07.570Z,99724.28
2022-12-23T10:10:43.649Z,99712.31
2022-12-23T10:13:26.697Z,99698.31
2022-12-23T10:15:57.972Z,99701.63
2022-12-23T10:18:48.533Z,99704.91
2022-12-23T10:21:19.224Z,99705.72
2022-12-23T10:23:54.372Z,99699.09
2022-12-23T10:26:46.676Z,99696.25
2022-12-23T10:29:19.988Z,99691.28
2022-12-23T10:32:18.111Z,99691.91
2022-12-23T10:34:57.817Z,99679.16
2022-12-23T10:37:36.143Z,99675.22
2022-12-23T10:40:33.420Z,99668.19
2022-12-23T10:43:22.015Z,99668.22
2022-12-23T10:46:01.576Z,99662.44
2022-12-23T10:49:12.024Z,99658.09
2022-12-23T10:51:48.600Z,99656.81
2022-12-23T10:54:25.165Z,99647.12
2022-12-23T10:56:52.816Z,99648.56
2022-12-23T10:59:29.358Z,99643.56
2022-12-23T11:02:16.100Z,99655.78
2022-12-23T11:04:49.423Z,99670.81
2022-12-23T11:07:45.996Z,99656.16
2022-12-23T11:10:24.510Z,99667.72
2022-12-23T11:12:54.816Z,99656.53
2022-12-23T11:15:33.981Z,99654.03
2022-12-23T11:18:12.467Z,99655.12
2022-12-23T11:20:45.051Z,99651.16
2022-12-23T11:23:29.571Z,99643.09
2022-12-23T11:26:07.404Z,99643.34
2022-12-23T11:28:39.431Z,99649.53
2022-12-23T11:31:12.062Z,99643.78
2022-12-23T11:33:47.225Z,99629.34
2022-12-23T11:36:23.773Z,99628.69
2022-12-23T11:39:20.209Z,99643.09
2022-12-23T11:41:50.061Z,99647.44
2022-12-23T11:44:30.777Z,99650.72
2022-12-23T11:46:58.534Z,99653.19
2022-12-23T11:49:32.377Z,99655.66
2022-12-23T11:52:15.031Z,99658.50
2022-12-23T11:54:54.669Z,99661.59
2022-12-23T11:57:48.414Z,99652.06
2022-12-23T12:00:22.565Z,99661.31
2022-12-23T12:02:54.054Z,99651.41
2022-12-23T12:05:36.353Z,99653.44
2022-12-23T12:08:20.214Z,99646.88
2022-12-23T12:10:53.178Z,99649.78
2022-12-23T12:13:33.613Z,99665.47
2022-12-23T12:16:24.635Z,99665.03
2022-12-23T12:18:56.695Z,99660.47
2022-12-23T12:21:29.772Z,99655.91
2022-12-23T12:24:18.691Z,99667.03
2022-12-23T12:26:53.359Z,99660.47
2022-12-23T12:29:34.558Z,99660.03
2022-12-23T12:32:03.245Z,99666.22
2022-12-23T12:34:52.652Z,99667.03
2022-12-23T12:37:45.166Z,99669.28
2022-12-23T12:40:26.062Z,99668.25
2022-12-23T12:43:03.128Z,99659.38
2022-12-23T12:46:15.616Z,99650.50
2022-12-23T12:48:50.438Z,99645.94
2022-12-23T12:51:28.590Z,99655.03
2022-12-23T12:54:11.155Z,99656.03
2022-12-23T12:56:45.173Z,99661.81
2022-12-23T12:59:19.364Z,99652.94
2022-12-23T13:02:06.386Z,99649.44
2022-12-23T13:04:44.898Z,99656.47
2022-12-23T13:07:21.132Z,99662.44
2022-12-23T13:10:25.953Z,99662.03
2022-12-23T13:13:21.226Z,99658.72
2022-12-23T13:15:48.852Z,99659.09
2022-12-23T13:18:28.507Z,99659.47
2022-12-23T13:21:12.312Z,99671.22
2022-12-23T13:23:48.412Z,99667.88
2022-12-23T13:26:30.753Z,99663.94
2022-12-23T13:29:25.055Z,99664.97
2022-12-23T13:32:33.217Z,99663.94
2022-12-23T13:35:07.241Z,99653.97
2022-12-23T13:37:52.478Z,99666.19
2022-12-23T13:40:41.911Z,99660.41
2022-12-23T13:43:17.144Z,99664.28
2022-12-23T13:45:48.845Z,99663.84
2022-12-23T13:48:28.357Z,99662.19
2022-12-23T13:51:28.447Z,99667.72
2022-12-23T13:54:04.877Z,99664.66
2022-12-23T13:56:48.699Z,99660.34
2022-12-23T13:59:17.802Z,99663.41
2022-12-23T14:01:48.885Z,99655.94
2022-12-23T14:04:35.547Z,99661.47
2022-12-23T14:07:24.197Z,99660.84
2022-12-23T14:09:58.372Z,99667.75
2022-12-23T14:12:32.091Z,99672.28
2022-12-23T14:15:25.521Z,99673.94
2022-12-23T14:18:34.914Z,99669.22
2022-12-23T14:21:21.105Z,99671.53
2022-12-23T14:24:29.904Z,99676.97
2022-12-23T14:27:36.211Z,99673.28
2022-12-23T14:30:25.345Z,99673.28
2022-12-23T14:32:55.679Z,99673.50
2022-12-23T14:35:29.320Z,99671.25
2022-12-23T14:38:11.707Z,99677.00
2022-12-23T14:40:39.326Z,99675.13
2022-12-23T14:43:31.542Z,99689.16
2022-12-23T14:46:02.738Z,99682.16
2022-12-23T14:48:48.705Z,99684.84
2022-12-23T14:51:16.284Z,99682.97
2022-12-23T14:53:53.674Z,99677.44
2022-12-23T14:56:31.196Z,99675.56
2022-12-23T14:59:23.667Z,99678.25
2022-12-23T15:01:55.068Z,99678.03
2022-12-23T15:04:36.460Z,99684.44
2022-12-23T15:07:06.597Z,99682.38
2022-12-23T15:09:47.419Z,99690.00
2022-12-23T15:12:21.658Z,99705.06
2022-12-23T15:14:57.525Z,99707.97
2022-12-23T15:17:29.806Z,99707.59
2022-12-23T15:20:17.119Z,99715.62
2022-12-23T15:22:46.435Z,99712.97
2022-12-23T15:25:35.800Z,99711.69
2022-12-23T15:28:04.897Z,99714.38
2022-12-23T15:30:37.525Z,99719.37
2022-12-23T15:33:43.240Z,99717.28
2022-12-23T15:36:02.125Z,99715.19
2022-12-23T15:38:32.795Z,99717.88
2022-12-23T15:41:07.620Z,99707.59
2022-12-23T15:43:42.085Z,99700.56
2022-12-23T15:46:28.585Z,99714.59
2022-12-23T15:48:57.572Z,99715.41
2022-12-23T15:51:57.844Z,99700.50
2022-12-23T15:54:24.032Z,99690.22
2022-12-23T15:56:54.675Z,99675.94
2022-12-23T15:59:26.448Z,99685.66
2022-12-23T16:01:54.822Z,99692.72
2022-12-23T16:04:31.348Z,99698.53
2022-12-23T16:07:04.951Z,99704.13
2022-12-23T16:09:37.417Z,99697.13
2022-12-23T16:12:35.816Z,99704.13
2022-12-23T16:15:05.001Z,99711.16
2022-12-23T16:17:38.063Z,99699.97
2022-12-23T16:20:21.007Z,99704.72
2022-12-23T16:22:54.326Z,99699.38
2022-12-23T16:25:26.359Z,99701.59
2022-12-23T16:28:01.245Z,99698.91
2022-12-23T16:30:37.596Z,99694.38
2022-12-23T16:33:39.790Z,99690.66
2022-12-23T16:36:39.993Z,99699.75
2022-12-23T16:39:10.751Z,99704.28
2022-12-23T16:41:40.821Z,99708.84
2022-12-23T16:44:13.660Z,99705.13
2022-12-23T16:46:46.492Z,99680.13
2022-12-23T16:49:20.107Z,99691.91
2022-12-23T16:51:48.514Z,99692.72
2022-12-23T16:54:21.216Z,99694.38
2022-12-23T16:56:49.988Z,99684.91
2022-12-23T16:59:20.664Z,99690.25
2022-12-23T17:01:50.176Z,99677.66
2022-12-23T17:04:18.011Z,99682.44
2022-12-23T17:06:46.624Z,99679.75
2022-12-23T17:09:14.652Z,99682.44
2022-12-23T17:11:43.382Z,99686.38
2022-12-23T17:14:26.120Z,99683.31
2022-12-23T17:16:57.661Z,99689.31
2022-12-23T17:19:28.833Z,99679.44
2022-12-23T17:22:06.780Z,99677.62
2022-12-23T17:24:34.397Z,99681.59
2022-12-23T17:27:12.207Z,99678.97
2022-12-23T17:29:39.905Z,99668.69
2022-12-23T17:32:11.542Z,99676.94
2022-12-23T17:34:41.823Z,99674.91
2022-12-23T17:37:32.578Z,99684.00
2022-12-23T17:40:00.321Z,99671.78
2022-12-23T17:42:31.217Z,99672.56
2022-12-23T17:45:00.603Z,99683.31
2022-12-23T17:47:28.690Z,99678.31
2022-12-23T17:50:00.968Z,99691.69
2022-12-23T17:52:28.615Z,99691.22
2022-12-23T17:54:56.210Z,99686.66
2022-12-23T17:57:26.290Z,99683.53
2022-12-23T17:59:57.815Z,99677.09
2022-12-23T18:02:30.909Z,99684.94
2022-12-23T18:05:00.970Z,99676.66
2022-12-23T18:07:29.142Z,99675.41
2022-12-23T18:09:56.770Z,99678.25
2022-12-23T18:12:42.299Z,99667.13
2022-12-23T18:15:20.853Z,99663.41
2022-12-23T18:17:53.082Z,99652.22
2022-12-23T18:20:26.258Z,99669.97
2022-12-23T18:22:55.632Z,99666.25
2022-12-23T18:25:26.335Z,99664.59
2022-12-23T18:27:55.250Z,99657.59
2022-12-23T18:30:23.120Z,99666.25
2022-12-23T18:32:50.801Z,99662.97
2022-12-23T18:35:20.703Z,99665.22
2022-12-23T18:37:48.325Z,99666.25
2022-12-23T18:40:16.113Z,99672.44
2022-12-23T18:42:43.717Z,99674.91
2022-12-23T18:45:39.140Z,99669.75
2022-12-23T18:48:11.357Z,99674.91
2022-12-23T18:50:41.393Z,99678.41
2022-12-23T18:53:23.678Z,99679.25
2022-12-23T18:55:53.044Z,99667.91
2022-12-23T18:58:20.993Z,99675.13
2022-12-23T19:00:50.780Z,99680.72
2022-12-23T19:03:24.360Z,99678.47
2022-12-23T19:05:53.216Z,99675.78
2022-12-23T19:08:26.817Z,99685.66
2022-12-23T19:10:56.612Z,99702.59
2022-12-23T19:13:24.957Z,99703.41
2022-12-23T19:15:53.914Z,99692.44
2022-12-23T19:18:23.040Z,99685.44
2022-12-23T19:20:53.141Z,99688.34
2022-12-23T19:23:20.810Z,99686.69
2022-12-23T19:25:55.303Z,99700.12
2022-12-23T19:28:25.028Z,99712.50
2022-12-23T19:30:52.974Z,99717.66
2022-12-23T19:33:23.306Z,99705.28
2022-12-23T19:35:53.303Z,99707.75
2022-12-23T19:38:21.157Z,99705.06
2022-12-23T19:40:57.390Z,99717.44
2022-12-23T19:43:25.062Z,99720.78
2022-12-23T19:46:04.821Z,99720.34
2022-12-23T19:48:35.747Z,99719.28
2022-12-23T19:51:10.070Z,99714.97
2022-12-23T19:53:37.718Z,99710.63
2022-12-23T19:56:10.649Z,99718.09
2022-12-23T19:58:40.495Z,99721.38
2022-12-23T20:01:12.596Z,99714.97
2022-12-23T20:03:41.500Z,99720.94
2022-12-23T20:06:15.433Z,99733.75
2022-12-23T20:08:43.748Z,99741.59
2022-12-23T20:11:14.038Z,99741.81
2022-12-23T20:13:43.239Z,99743.47
2022-12-23T20:16:13.256Z,99742.44
2022-12-23T20:18:40.984Z,99731.91
2022-12-23T20:21:08.731Z,99726.53
2022-12-23T20:23:36.516Z,99720.78
2022-12-23T20:26:06.132Z,99722.81
2022-12-23T20:28:36.924Z,99720.78
2022-12-23T20:31:19.524Z,99715.81
2022-12-23T20:33:49.070Z,99712.50
2022-12-23T20:36:19.880Z,99702.00
2022-12-23T20:38:48.829Z,99701.34
2022-12-23T20:41:21.456Z,99702.78
2022-12-23T20:44:23.485Z,99690.00
2022-12-23T20:46:37.793Z,99689.37
2022-12-23T20:49:05.542Z,99687.75
2022-12-23T20:51:33.297Z,99687.13
2022-12-23T20:54:01.054Z,99672.44
2022-12-23T20:56:30.472Z,99678.63
2022-12-23T20:59:00.203Z,99667.06
2022-12-23T21:01:37.970Z,99667.91
2022-12-23T21:04:22.983Z,99671.19
2022-12-23T21:06:51.448Z,99669.09
2022-12-23T21:09:21.704Z,99670.78
2022-12-23T21:11:49.389Z,99668.50
2022-12-23T21:14:19.967Z,99668.94
2022-12-23T21:16:47.993Z,99678.63
2022-12-23T21:19:21.707Z,99675.13
2022-12-23T21:21:50.718Z,99687.31
2022-12-23T21:24:19.399Z,99692.06
2022-12-23T21:26:55.629Z,99679.47
2022-12-23T21:29:24.340Z,99666.84
2022-12-23T21:31:53.153Z,99658.78
2022-12-23T21:34:21.081Z,99659.41
2022-12-23T21:36:48.909Z,99657.94
2022-12-23T21:39:17.553Z,99660.63
2022-12-23T21:41:46.000Z,99649.66
2022-12-23T21:44:14.701Z,99651.31
2022-12-23T21:46:44.773Z,99656.47
2022-12-23T21:49:12.961Z,99652.94
2022-12-23T21:51:41.817Z,99650.03
2022-12-23T21:54:15.517Z,99640.94
2022-12-23T21:56:44.231Z,99636.16
2022-12-23T21:59:15.073Z,99645.06
2022-12-23T22:01:43.890Z,99639.69
2022-12-23T22:04:12.903Z,99633.47
2022-12-23T22:06:46.876Z,99621.69
2022-12-23T22:09:21.289Z,99624.00
2022-12-23T22:11:50.422Z,99610.72
2022-12-23T22:14:20.929Z,99613.63
2022-12-23T22:16:48.628Z,99606.63
2022-12-23T22:19:21.519Z,99589.44
2022-12-23T22:21:49.475Z,99581.37
2022-12-23T22:24:17.212Z,99573.94
2022-12-23T22:26:44.887Z,99571.47
2022-12-23T22:29:12.828Z,99565.87
2022-12-23T22:31:48.183Z,99564.22
2022-12-23T22:34:20.003Z,99563.41
2022-12-23T22:36:47.869Z,99562.12
2022-12-23T22:39:21.695Z,99558.84
2022-12-23T22:41:51.564Z,99556.16
2022-12-23T22:44:20.363Z,99554.06
2022-12-23T22:46:48.415Z,99558.03
2022-12-23T22:49:17.150Z,99559.00
2022-12-23T22:51:45.094Z,99558.41
2022-12-23T22:54:14.703Z,99549.31
2022-12-23T22:56:46.971Z,99557.34
2022-12-23T22:59:24.057Z,99551.37
2022-12-23T23:01:54.163Z,99547.66
2022-12-23T23:04:25.138Z,99549.16
2022-12-23T23:06:53.064Z,99547.72
2022-12-23T23:09:23.140Z,99546.47
2022-12-23T23:11:57.345Z,99543.31
2022-12-23T23:14:27.156Z,99546.63
2022-12-23T23:16:54.941Z,99544.53
2022-12-23T23:19:25.203Z,99559.59
2022-12-23T23:21:55.791Z,99550.25
2022-12-23T23:24:31.056Z,99554.38
2022-12-23T23:26:59.170Z,99544.66
2022-12-23T23:29:26.818Z,99539.53
2022-12-23T23:31:56.617Z,99554.59
2022-12-23T23:34:24.304Z,99553.34
2022-12-23T23:36:53.989Z,99551.69
2022-12-23T23:39:21.635Z,99554.38
2022-12-23T23:41:51.032Z,99554.78
2022-12-23T23:44:18.876Z,99544.44
2022-12-23T23:46:47.695Z,99537.81
2022-12-23T23:49:15.696Z,99535.56
2022-12-23T23:51:43.340Z,99532.28
2022-12-23T23:54:11.565Z,99513.91
2022-12-23T23:56:39.752Z,99528.84
2022-12-23T23:59:10.765Z,99521.37
